Time;durP1;ratioP1;P1;durP2;ratioP2;P2;SDS_P1;SDS_P2;PMS_P1;PMS_P2;Temp;Humidity;BMP_temperature;BMP_pressure;BME280_temperature;BME280_humidity;BME280_pressure;Samples;Min_cycle;Max_cycle;Signal;HPM_P1;HPM_P2
2022/08/09 00:00:30;;;;;;;2.65;2.08;;;12.70;56.50;;;;;;5073773;28;20201;-37
2022/08/09 00:03:00;;;;;;;2.97;2.10;;;12.70;56.50;;;;;;5072903;28;20263;-37
2022/08/09 00:05:31;;;;;;;4.13;1.90;;;12.70;56.50;;;;;;5073029;28;20215;-37
2022/08/09 00:08:02;;;;;;;3.95;1.80;;;12.70;57.20;;;;;;5073665;28;20198;-37
2022/08/09 00:10:32;;;;;;;2.35;2.00;;;12.80;56.70;;;;;;5084912;28;20251;-41
2022/08/09 00:13:05;;;;;;;2.35;1.77;;;12.80;56.70;;;;;;5093109;28;20190;-37
2022/08/09 00:15:38;;;;;;;4.30;2.40;;;12.90;56.70;;;;;;5093904;28;20767;-37
2022/08/09 00:18:08;;;;;;;5.10;2.20;;;12.90;56.70;;;;;;5093865;28;20535;-37
2022/08/09 00:20:39;;;;;;;2.80;2.13;;;13.00;56.70;;;;;;5093531;28;20202;-37
2022/08/09 00:23:10;;;;;;;2.63;2.05;;;13.00;56.60;;;;;;5093415;28;20197;-37
2022/08/09 00:25:40;;;;;;;3.38;1.80;;;13.00;56.50;;;;;;5093304;28;20693;-37
2022/08/09 00:28:11;;;;;;;4.78;2.15;;;13.10;56.50;;;;;;5053008;28;20226;-40
2022/08/09 00:30:44;;;;;;;3.67;2.10;;;13.10;56.40;;;;;;5062787;28;20198;-37
2022/08/09 00:33:14;;;;;;;3.15;2.05;;;13.20;56.40;;;;;;5072981;28;20194;-40
2022/08/09 00:35:45;;;;;;;2.85;1.95;;;13.20;56.30;;;;;;5073047;28;20214;-37
2022/08/09 00:38:16;;;;;;;2.50;1.90;;;13.20;56.20;;;;;;5072715;28;20202;-42
2022/08/09 00:40:47;;;;;;;3.75;2.28;;;13.30;56.20;;;;;;5073326;28;20240;-37
2022/08/09 00:43:17;;;;;;;3.72;2.25;;;13.30;56.10;;;;;;5073888;28;20206;-37
2022/08/09 00:45:51;;;;;;;2.10;1.67;;;13.40;56.10;;;;;;5073194;28;20225;-37
2022/08/09 00:48:22;;;;;;;2.20;1.80;;;13.40;57.10;;;;;;5072737;28;20187;-37
2022/08/09 00:50:52;;;;;;;3.58;2.00;;;13.50;58.30;;;;;;5085312;28;20208;-37
2022/08/09 00:53:24;;;;;;;3.53;2.20;;;13.60;57.80;;;;;;5093360;28;20281;-37
2022/08/09 00:55:54;;;;;;;3.05;2.50;;;13.70;57.20;;;;;;5089463;28;20203;-37
2022/08/09 00:58:25;;;;;;;5.47;2.33;;;13.70;56.90;;;;;;5072588;28;20646;-42
2022/08/09 01:00:59;;;;;;;3.47;2.53;;;13.80;56.70;;;;;;5072684;28;20199;-37
2022/08/09 01:03:41;;;;;;;3.00;2.38;;;13.80;56.50;;;;;;5072107;28;20684;-39
2022/08/09 01:06:14;;;;;;;4.07;2.35;;;13.90;56.40;;;;;;5072954;28;20260;-37
2022/08/09 01:08:53;;;;;;;3.72;2.05;;;13.90;56.30;;;;;;5072451;28;20222;-42
2022/08/09 01:11:35;;;;;;;2.78;2.03;;;13.90;56.20;;;;;;5072739;28;20206;-37
2022/08/09 01:14:08;;;;;;;2.83;1.90;;;13.90;56.10;;;;;;5071971;28;20191;-37
2022/08/09 01:16:44;;;;;;;3.22;1.95;;;13.90;56.10;;;;;;5088762;28;20647;-37
2022/08/09 01:19:29;;;;;;;4.38;2.38;;;13.90;56.00;;;;;;5093159;28;20198;-37
2022/08/09 01:22:15;;;;;;;3.35;2.03;;;14.00;56.00;;;;;;5072068;28;20199;-37
2022/08/09 01:24:58;;;;;;;3.17;2.08;;;14.00;55.90;;;;;;5071843;28;20195;-40
2022/08/09 01:27:33;;;;;;;3.40;2.00;;;14.00;55.90;;;;;;5072216;28;20687;-38
2022/08/09 01:30:06;;;;;;;3.78;2.35;;;14.00;55.80;;;;;;5074589;28;20225;-42
2022/08/09 01:32:39;;;;;;;3.65;2.25;;;14.00;55.80;;;;;;5084558;28;20187;-42
2022/08/09 01:35:15;;;;;;;3.10;2.50;;;14.00;55.70;;;;;;5072344;28;20678;-37
2022/08/09 01:37:47;;;;;;;3.65;2.20;;;14.00;55.70;;;;;;5071740;28;20195;-37
2022/08/09 01:40:20;;;;;;;2.90;2.25;;;14.00;55.80;;;;;;5072162;28;20187;-42
2022/08/09 01:42:54;;;;;;;3.08;2.20;;;14.10;55.60;;;;;;5072427;28;20194;-38
2022/08/09 01:45:25;;;;;;;3.10;2.30;;;14.10;55.60;;;;;;5071398;28;20210;-38
2022/08/09 01:47:58;;;;;;;2.50;1.95;;;14.10;55.60;;;;;;5070489;28;20553;-37
2022/08/09 01:50:30;;;;;;;3.80;2.22;;;14.10;55.50;;;;;;5076906;28;20214;-38
2022/08/09 01:53:03;;;;;;;4.15;2.38;;;14.10;55.50;;;;;;5091855;28;20806;-37
2022/08/09 01:55:35;;;;;;;3.58;2.08;;;14.10;55.40;;;;;;5091310;28;20213;-41
2022/08/09 01:58:10;;;;;;;2.88;2.33;;;14.10;55.40;;;;;;5071907;28;20205;-40
2022/08/09 02:00:42;;;;;;;3.45;2.08;;;14.10;55.40;;;;;;5071547;28;20537;-37
2022/08/09 02:03:16;;;;;;;3.15;2.40;;;14.10;55.40;;;;;;5069346;28;20195;-37
2022/08/09 02:05:49;;;;;;;3.72;2.20;;;14.20;55.40;;;;;;5071346;28;20214;-37
2022/08/09 02:08:22;;;;;;;3.03;2.00;;;14.20;55.30;;;;;;5071350;28;20199;-38
2022/08/09 02:10:55;;;;;;;2.40;1.70;;;14.20;55.30;;;;;;5070845;28;20223;-41
2022/08/09 02:13:30;;;;;;;3.08;2.60;;;14.20;55.30;;;;;;5071337;28;20202;-41
2022/08/09 02:16:05;;;;;;;3.13;2.10;;;14.20;55.20;;;;;;5071498;28;20226;-37
2022/08/09 02:18:39;;;;;;;2.88;2.20;;;14.20;55.30;;;;;;5070840;28;20259;-38
2022/08/09 02:21:14;;;;;;;2.53;2.00;;;14.20;55.20;;;;;;5071267;28;20340;-37
2022/08/09 02:23:50;;;;;;;3.00;1.85;;;14.20;55.20;;;;;;5071304;28;20198;-37
2022/08/09 02:26:22;;;;;;;2.97;2.20;;;14.20;55.20;;;;;;5070156;28;20237;-38
2022/08/09 02:28:59;;;;;;;2.67;1.80;;;14.20;55.20;;;;;;5071150;28;20566;-37
2022/08/09 02:31:32;;;;;;;3.13;2.10;;;14.20;55.10;;;;;;5071040;28;20201;-41
2022/08/09 02:34:09;;;;;;;4.45;2.38;;;14.20;55.10;;;;;;5071215;28;20199;-40
2022/08/09 02:36:44;;;;;;;3.25;2.13;;;14.20;55.10;;;;;;5071222;28;20301;-37
2022/08/09 02:39:20;;;;;;;3.15;1.95;;;14.20;55.10;;;;;;5070441;28;20683;-38
2022/08/09 02:41:55;;;;;;;3.10;1.95;;;14.20;55.00;;;;;;5070305;28;20194;-37
2022/08/09 02:44:32;;;;;;;2.67;2.15;;;14.30;55.10;;;;;;5071425;28;20194;-38
2022/08/09 02:47:06;;;;;;;3.20;1.98;;;14.30;55.10;;;;;;5070925;28;20217;-39
2022/08/09 02:49:42;;;;;;;4.35;2.35;;;14.20;55.00;;;;;;5070455;28;20224;-37
2022/08/09 02:52:16;;;;;;;3.08;2.13;;;14.30;55.00;;;;;;5070851;28;20194;-37
2022/08/09 02:54:48;;;;;;;3.28;2.35;;;14.20;54.90;;;;;;5070372;28;20233;-37
2022/08/09 02:57:20;;;;;;;3.58;2.40;;;14.20;55.00;;;;;;5081001;28;20198;-37
2022/08/09 02:59:53;;;;;;;5.20;2.45;;;14.20;54.90;;;;;;5091571;28;20194;-37
2022/08/09 03:02:24;;;;;;;4.05;2.58;;;14.20;55.00;;;;;;5091146;28;20205;-38
2022/08/09 03:04:56;;;;;;;2.90;2.60;;;14.20;55.00;;;;;;5091307;28;20257;-37
2022/08/09 03:07:28;;;;;;;2.33;2.05;;;14.20;55.00;;;;;;5091270;28;20198;-37
2022/08/09 03:09:59;;;;;;;2.72;2.13;;;14.20;55.00;;;;;;5090832;28;20229;-40
2022/08/09 03:12:31;;;;;;;2.67;2.42;;;14.20;55.00;;;;;;5082407;28;20199;-37
2022/08/09 03:15:04;;;;;;;2.88;2.10;;;14.20;55.00;;;;;;5070758;28;20697;-39
2022/08/09 03:17:36;;;;;;;3.70;2.40;;;14.30;54.90;;;;;;5070570;28;20199;-39
2022/08/09 03:20:09;;;;;;;4.68;2.30;;;14.20;54.80;;;;;;5070873;28;20195;-41
2022/08/09 03:22:43;;;;;;;3.03;2.00;;;14.30;54.90;;;;;;5070785;28;20206;-42
2022/08/09 03:25:15;;;;;;;3.75;2.28;;;14.30;54.90;;;;;;5070638;28;20321;-37
2022/08/09 03:27:47;;;;;;;2.28;2.08;;;14.30;54.90;;;;;;5070439;28;20195;-39
2022/08/09 03:30:20;;;;;;;3.75;2.22;;;14.20;54.80;;;;;;5070764;28;20233;-37
2022/08/09 03:32:52;;;;;;;4.55;2.25;;;14.20;54.80;;;;;;5069886;28;20191;-37
2022/08/09 03:35:23;;;;;;;3.88;2.40;;;14.30;54.90;;;;;;5069845;28;20222;-36
2022/08/09 03:37:54;;;;;;;2.97;2.45;;;14.20;54.80;;;;;;5070501;28;20198;-37
2022/08/09 03:40:25;;;;;;;2.90;2.53;;;14.20;54.90;;;;;;5070000;28;20194;-36
2022/08/09 03:42:56;;;;;;;5.00;2.50;;;14.20;54.80;;;;;;5070725;28;20204;-36
2022/08/09 03:45:29;;;;;;;3.88;2.25;;;14.20;54.80;;;;;;5070965;28;20214;-37
2022/08/09 03:48:00;;;;;;;3.95;2.30;;;14.20;54.80;;;;;;5070846;28;20207;-36
2022/08/09 03:50:32;;;;;;;5.22;2.38;;;14.20;54.80;;;;;;5070574;28;20241;-37
2022/08/09 03:53:05;;;;;;;3.10;2.38;;;14.20;55.30;;;;;;5070734;28;20199;-37
2022/08/09 03:55:36;;;;;;;4.07;2.30;;;14.30;54.70;;;;;;5070715;28;20219;-37
2022/08/09 03:58:06;;;;;;;2.83;2.22;;;14.30;54.70;;;;;;5070312;28;20199;-39
2022/08/09 04:00:40;;;;;;;2.28;2.00;;;14.30;54.70;;;;;;5070976;28;20557;-36
2022/08/09 04:03:11;;;;;;;3.25;2.35;;;14.20;54.60;;;;;;5070442;28;20252;-39
2022/08/09 04:05:43;;;;;;;3.58;2.45;;;14.20;54.60;;;;;;5070727;28;20218;-36
2022/08/09 04:08:14;;;;;;;3.60;2.30;;;14.20;54.60;;;;;;5070072;28;20202;-37
2022/08/09 04:10:45;;;;;;;3.05;2.40;;;14.20;54.60;;;;;;5070040;28;20219;-37
2022/08/09 04:13:15;;;;;;;3.08;2.30;;;14.20;54.60;;;;;;5070042;28;20201;-39
2022/08/09 04:15:48;;;;;;;3.65;2.72;;;14.20;54.60;;;;;;5069827;28;20230;-38
2022/08/09 04:18:20;;;;;;;3.15;2.70;;;14.20;54.60;;;;;;5069717;28;20209;-38
2022/08/09 04:20:50;;;;;;;3.10;2.20;;;14.20;54.60;;;;;;5070139;28;20253;-37
2022/08/09 04:23:22;;;;;;;2.88;2.10;;;14.20;54.60;;;;;;5070358;28;20651;-42
2022/08/09 04:25:52;;;;;;;2.88;1.90;;;14.20;54.60;;;;;;5069982;28;20585;-37
2022/08/09 04:28:24;;;;;;;3.08;2.17;;;14.20;54.60;;;;;;5069819;28;20190;-37
2022/08/09 04:30:56;;;;;;;3.42;2.20;;;14.20;54.60;;;;;;5069707;28;20222;-38
2022/08/09 04:33:27;;;;;;;2.78;2.40;;;14.20;54.60;;;;;;5069673;28;20556;-37
2022/08/09 04:35:58;;;;;;;2.58;2.17;;;14.20;54.60;;;;;;5069450;28;20222;-37
2022/08/09 04:38:28;;;;;;;3.15;2.15;;;14.20;54.60;;;;;;5069646;28;20194;-37
2022/08/09 04:40:59;;;;;;;2.63;2.00;;;14.10;54.60;;;;;;5070701;28;20195;-37
2022/08/09 04:43:30;;;;;;;2.78;2.10;;;14.10;54.60;;;;;;5073643;28;20217;-39
2022/08/09 04:46:02;;;;;;;2.92;2.33;;;14.10;54.60;;;;;;5073259;28;20218;-38
2022/08/09 04:48:33;;;;;;;2.80;2.17;;;14.10;54.60;;;;;;5073606;28;20206;-37
2022/08/09 04:51:04;;;;;;;2.78;2.15;;;14.10;54.70;;;;;;5073144;28;20249;-42
2022/08/09 04:53:34;;;;;;;3.25;2.33;;;14.10;54.70;;;;;;5073153;28;20198;-38
2022/08/09 04:56:05;;;;;;;3.17;1.92;;;14.10;54.70;;;;;;5073359;28;20237;-40
2022/08/09 04:58:36;;;;;;;3.78;2.38;;;14.10;54.70;;;;;;5073607;28;20198;-42
2022/08/09 05:01:09;;;;;;;2.92;2.10;;;14.10;54.70;;;;;;5073111;28;20350;-38
2022/08/09 05:03:40;;;;;;;2.20;1.98;;;14.10;54.80;;;;;;5072825;28;20409;-37
2022/08/09 05:06:11;;;;;;;2.72;2.35;;;14.00;54.70;;;;;;5073488;28;20215;-37
2022/08/09 05:08:41;;;;;;;2.50;2.30;;;14.00;54.70;;;;;;5073300;28;20195;-37
2022/08/09 05:11:12;;;;;;;4.18;2.47;;;14.00;54.80;;;;;;5073357;28;20697;-37
2022/08/09 05:13:43;;;;;;;2.25;2.00;;;14.00;54.80;;;;;;5073359;28;20730;-38
2022/08/09 05:16:15;;;;;;;3.65;2.30;;;14.00;54.80;;;;;;5072905;28;20214;-44
2022/08/09 05:18:46;;;;;;;3.47;2.25;;;14.00;54.80;;;;;;5073206;28;20646;-38
2022/08/09 05:21:18;;;;;;;2.40;2.20;;;14.00;54.80;;;;;;5073246;28;20191;-38
2022/08/09 05:23:48;;;;;;;3.22;2.25;;;13.90;54.90;;;;;;5072475;28;20272;-38
2022/08/09 05:26:19;;;;;;;3.17;2.20;;;13.90;54.90;;;;;;5057436;28;20219;-38
2022/08/09 05:28:50;;;;;;;2.45;2.20;;;13.90;54.90;;;;;;5072929;28;20195;-39
2022/08/09 05:31:22;;;;;;;3.35;2.22;;;13.90;55.00;;;;;;5073017;28;20451;-40
2022/08/09 05:33:53;;;;;;;2.72;2.08;;;13.90;55.00;;;;;;5070461;28;20210;-38
2022/08/09 05:36:23;;;;;;;2.97;2.35;;;13.90;55.00;;;;;;5069776;28;20226;-38
2022/08/09 05:38:54;;;;;;;3.30;2.45;;;13.80;55.00;;;;;;5071020;28;20658;-40
2022/08/09 05:41:25;;;;;;;2.50;1.85;;;13.90;55.00;;;;;;5061579;28;20200;-41
2022/08/09 05:43:55;;;;;;;2.30;1.95;;;13.90;55.00;;;;;;5054022;28;20199;-38
2022/08/09 05:46:28;;;;;;;3.55;2.50;;;13.80;55.00;;;;;;5092367;28;20218;-38
2022/08/09 05:48:59;;;;;;;3.95;2.20;;;13.80;55.00;;;;;;5092407;28;20637;-38
2022/08/09 05:51:29;;;;;;;3.72;2.20;;;13.80;55.10;;;;;;5092687;28;20222;-38
2022/08/09 05:54:00;;;;;;;3.88;2.13;;;13.80;55.10;;;;;;5076701;28;20203;-38
2022/08/09 05:56:31;;;;;;;3.30;2.13;;;13.80;55.10;;;;;;5071251;28;20238;-37
2022/08/09 05:59:02;;;;;;;3.50;2.63;;;13.80;55.10;;;;;;5071158;28;20206;-39
2022/08/09 06:01:34;;;;;;;2.75;2.25;;;13.80;55.20;;;;;;5071534;28;20210;-43
2022/08/09 06:04:05;;;;;;;2.92;2.47;;;13.70;55.20;;;;;;5072244;28;20776;-37
2022/08/09 06:06:36;;;;;;;3.33;2.33;;;13.70;55.20;;;;;;5071814;28;20218;-44
2022/08/09 06:09:07;;;;;;;3.85;2.70;;;13.70;55.20;;;;;;5072304;28;20191;-41
2022/08/09 06:11:37;;;;;;;3.38;2.55;;;13.70;55.20;;;;;;5070165;28;20225;-40
2022/08/09 06:14:08;;;;;;;3.53;2.53;;;13.70;55.20;;;;;;5071631;28;20186;-40
2022/08/09 06:16:41;;;;;;;2.92;2.42;;;13.80;55.30;;;;;;5063381;28;20215;-38
2022/08/09 06:19:13;;;;;;;3.75;2.70;;;13.70;55.20;;;;;;5071014;28;20194;-38
2022/08/09 06:21:44;;;;;;;3.92;2.75;;;13.70;55.20;;;;;;5071645;28;20198;-48
2022/08/09 06:24:15;;;;;;;3.40;2.60;;;13.70;55.20;;;;;;5070852;28;20635;-42
2022/08/09 06:26:46;;;;;;;4.38;2.85;;;13.70;55.20;;;;;;5070770;28;20223;-46
2022/08/09 06:29:16;;;;;;;4.03;3.08;;;13.70;55.30;;;;;;5066648;28;20235;-39
2022/08/09 06:31:49;;;;;;;3.90;2.70;;;13.70;55.30;;;;;;5051579;28;20230;-37
2022/08/09 06:34:20;;;;;;;4.05;3.10;;;13.70;55.30;;;;;;5061546;28;20182;-48
2022/08/09 06:36:51;;;;;;;3.63;2.90;;;13.60;55.30;;;;;;5091217;28;20214;-38
2022/08/09 06:39:21;;;;;;;4.15;3.10;;;13.60;55.30;;;;;;5090267;28;20189;-38
2022/08/09 06:41:52;;;;;;;4.47;3.10;;;13.60;55.40;;;;;;5091045;28;20206;-53
2022/08/09 06:44:23;;;;;;;5.60;3.33;;;13.60;55.40;;;;;;5091689;28;20197;-45
2022/08/09 06:46:55;;;;;;;4.72;3.95;;;13.60;55.40;;;;;;5090500;28;20225;-44
2022/08/09 06:49:26;;;;;;;5.00;3.97;;;13.60;55.50;;;;;;5091283;28;20190;-46
2022/08/09 06:51:57;;;;;;;6.07;4.43;;;13.60;55.50;;;;;;5090824;28;20248;-49
2022/08/09 06:54:27;;;;;;;5.80;4.50;;;13.60;55.50;;;;;;5090438;28;20197;-49
2022/08/09 06:56:58;;;;;;;5.68;4.50;;;13.60;55.50;;;;;;5080633;28;20709;-39
2022/08/09 06:59:29;;;;;;;6.25;4.40;;;13.60;55.40;;;;;;5071073;28;20562;-45
2022/08/09 07:02:02;;;;;;;7.32;4.90;;;13.60;55.50;;;;;;5070270;28;20213;-41
2022/08/09 07:04:32;;;;;;;5.47;4.00;;;13.60;55.50;;;;;;5071004;28;20219;-40
2022/08/09 07:07:04;;;;;;;7.18;5.20;;;13.60;55.50;;;;;;5070705;28;21027;-46
2022/08/09 07:09:35;;;;;;;6.05;4.93;;;13.60;55.50;;;;;;5071169;28;20638;-42
2022/08/09 07:12:06;;;;;;;6.20;4.45;;;13.50;55.50;;;;;;5069930;28;20233;-43
2022/08/09 07:14:37;;;;;;;7.35;4.80;;;13.50;55.60;;;;;;5070593;28;20195;-43
2022/08/09 07:17:10;;;;;;;6.82;4.70;;;13.50;55.60;;;;;;5070957;28;20218;-41
2022/08/09 07:19:40;;;;;;;6.35;4.75;;;13.50;55.60;;;;;;5070144;28;20193;-39
2022/08/09 07:22:11;;;;;;;5.15;4.40;;;13.50;55.60;;;;;;5070287;28;20203;-37
2022/08/09 07:24:42;;;;;;;6.60;4.30;;;13.50;55.50;;;;;;5069892;28;20299;-44
2022/08/09 07:27:13;;;;;;;5.30;4.50;;;13.50;55.50;;;;;;5070680;28;20213;-37
2022/08/09 07:29:44;;;;;;;6.20;4.50;;;13.50;55.60;;;;;;5070754;28;20195;-38
2022/08/09 07:32:16;;;;;;;6.20;4.47;;;13.50;55.50;;;;;;5070898;28;20233;-39
2022/08/09 07:34:47;;;;;;;7.55;4.85;;;13.50;55.50;;;;;;5070957;28;20202;-41
2022/08/09 07:37:18;;;;;;;5.75;4.32;;;13.50;55.50;;;;;;5070688;28;20194;-39
2022/08/09 07:39:48;;;;;;;5.93;4.30;;;13.50;55.50;;;;;;5070510;28;20191;-47
2022/08/09 07:42:19;;;;;;;5.18;4.18;;;13.50;55.60;;;;;;5070439;28;20673;-43
2022/08/09 07:44:50;;;;;;;6.85;4.47;;;13.50;55.60;;;;;;5071206;28;20198;-38
2022/08/09 07:47:23;;;;;;;5.93;4.03;;;13.50;55.60;;;;;;5070494;28;20198;-37
2022/08/09 07:49:54;;;;;;;6.20;4.10;;;13.50;55.70;;;;;;5070417;28;20195;-37
2022/08/09 07:52:25;;;;;;;6.30;4.15;;;13.40;55.60;;;;;;5070369;28;20310;-37
2022/08/09 07:54:55;;;;;;;5.57;4.28;;;13.40;55.60;;;;;;5070235;28;20191;-37
2022/08/09 07:57:26;;;;;;;6.43;4.75;;;13.40;55.60;;;;;;5070140;28;20701;-36
2022/08/09 07:59:57;;;;;;;5.25;4.28;;;13.50;55.70;;;;;;5070196;28;20210;-36
2022/08/09 08:02:29;;;;;;;7.13;4.55;;;13.40;55.60;;;;;;5069702;28;20213;-37
2022/08/09 08:05:00;;;;;;;4.97;3.75;;;13.40;55.60;;;;;;5070068;28;20210;-37
2022/08/09 08:07:31;;;;;;;5.68;4.32;;;13.40;55.60;;;;;;5070559;28;20203;-36
2022/08/09 08:10:01;;;;;;;5.57;4.30;;;13.40;55.60;;;;;;5072175;28;20814;-37
2022/08/09 08:12:32;;;;;;;5.55;4.45;;;13.40;55.60;;;;;;5090023;28;20233;-37
2022/08/09 08:15:03;;;;;;;5.05;4.55;;;13.40;55.60;;;;;;5090389;28;20608;-42
2022/08/09 08:17:35;;;;;;;5.13;4.10;;;13.40;55.60;;;;;;5094140;28;20614;-37
2022/08/09 08:20:07;;;;;;;5.40;4.60;;;13.40;55.70;;;;;;5094534;28;20202;-36
2022/08/09 08:22:37;;;;;;;6.05;4.93;;;13.40;56.30;;;;;;5094607;28;20216;-36
2022/08/09 08:25:09;;;;;;;5.60;4.60;;;13.40;55.70;;;;;;5093735;28;20310;-37
2022/08/09 08:27:39;;;;;;;6.10;4.28;;;13.40;55.70;;;;;;5078027;28;20214;-40
2022/08/09 08:30:12;;;;;;;5.35;4.20;;;13.40;55.70;;;;;;5073915;28;20559;-37
2022/08/09 08:32:45;;;;;;;6.03;4.47;;;13.40;55.70;;;;;;5073906;28;20226;-37
2022/08/09 08:35:15;;;;;;;6.25;4.18;;;13.40;55.70;;;;;;5073529;28;20591;-40
2022/08/09 08:37:46;;;;;;;5.50;4.32;;;13.40;55.70;;;;;;5073486;28;20198;-42
2022/08/09 08:40:21;;;;;;;4.70;4.13;;;13.40;55.70;;;;;;5073548;28;20190;-47
2022/08/09 08:42:52;;;;;;;6.93;4.40;;;13.40;55.70;;;;;;5073924;28;20194;-37
2022/08/09 08:45:30;;;;;;;5.47;3.80;;;13.40;55.70;;;;;;5074229;28;20218;-37
2022/08/09 08:48:03;;;;;;;5.10;4.20;;;13.40;55.70;;;;;;5073407;28;20596;-37
2022/08/09 08:50:34;;;;;;;4.72;4.10;;;13.40;55.70;;;;;;5073476;28;20198;-36
2022/08/09 08:53:05;;;;;;;4.82;3.85;;;13.40;55.70;;;;;;5073636;28;20241;-37
2022/08/09 08:55:36;;;;;;;5.82;3.60;;;13.30;55.60;;;;;;5073324;28;20215;-36
2022/08/09 08:58:08;;;;;;;4.65;3.70;;;13.30;55.70;;;;;;5072942;28;20199;-36
2022/08/09 09:00:39;;;;;;;5.22;3.97;;;13.30;55.70;;;;;;5073596;28;20194;-37
2022/08/09 09:03:16;;;;;;;4.25;3.80;;;13.30;55.70;;;;;;5073504;28;20221;-37
2022/08/09 09:05:48;;;;;;;6.10;3.90;;;13.30;55.70;;;;;;5073325;28;20219;-37
2022/08/09 09:08:22;;;;;;;4.22;3.80;;;13.30;56.30;;;;;;5073010;28;20194;-40
2022/08/09 09:10:53;;;;;;;4.88;3.80;;;13.30;55.70;;;;;;5072727;28;20599;-36
2022/08/09 09:13:24;;;;;;;4.60;4.07;;;13.30;55.70;;;;;;5072876;28;20221;-36
2022/08/09 09:15:55;;;;;;;4.70;3.53;;;13.30;55.70;;;;;;5072742;28;20254;-37
2022/08/09 09:18:27;;;;;;;4.97;3.75;;;13.30;55.70;;;;;;5072607;28;20191;-37
2022/08/09 09:20:59;;;;;;;4.63;3.75;;;13.30;55.70;;;;;;5072582;28;20583;-36
2022/08/09 09:23:45;;;;;;;4.47;3.63;;;13.30;55.70;;;;;;5072908;28;20202;-45
2022/08/09 09:26:16;;;;;;;3.75;3.30;;;13.30;55.80;;;;;;5071772;28;20215;-36
2022/08/09 09:28:47;;;;;;;5.13;3.70;;;13.30;55.90;;;;;;5072858;28;20202;-38
2022/08/09 09:31:21;;;;;;;4.80;4.07;;;13.30;55.90;;;;;;5073087;28;20199;-43
2022/08/09 09:33:53;;;;;;;5.13;4.03;;;13.30;55.90;;;;;;5072979;28;20201;-40
2022/08/09 09:36:24;;;;;;;4.68;3.65;;;13.30;55.90;;;;;;5072877;28;20218;-53
2022/08/09 09:38:57;;;;;;;5.05;4.10;;;13.30;55.90;;;;;;5072632;28;20194;-38
2022/08/09 09:41:34;;;;;;;5.05;3.92;;;13.30;55.90;;;;;;5072175;28;20227;-37
2022/08/09 09:44:06;;;;;;;6.95;4.22;;;13.30;55.90;;;;;;5072988;28;20209;-37
2022/08/09 09:46:38;;;;;;;5.05;3.60;;;13.30;55.90;;;;;;5072805;28;20402;-37
2022/08/09 09:49:13;;;;;;;3.97;3.42;;;13.20;55.80;;;;;;5072921;28;20195;-37
2022/08/09 09:51:44;;;;;;;4.55;3.80;;;13.30;56.10;;;;;;5072771;28;20229;-37
2022/08/09 09:54:18;;;;;;;5.85;3.28;;;13.30;56.50;;;;;;5072706;28;20244;-37
2022/08/09 09:56:50;;;;;;;4.65;3.70;;;13.30;57.20;;;;;;5071745;28;20210;-45
2022/08/09 09:59:34;;;;;;;4.20;3.50;;;13.40;57.60;;;;;;5072132;28;20195;-40
2022/08/09 10:02:05;;;;;;;5.28;3.60;;;13.40;57.50;;;;;;5072337;28;20218;-38
2022/08/09 10:04:38;;;;;;;4.03;3.45;;;13.40;57.40;;;;;;5072790;28;20642;-37
2022/08/09 10:07:22;;;;;;;4.78;3.67;;;13.40;57.20;;;;;;5071328;28;20217;-36
2022/08/09 10:09:55;;;;;;;4.25;3.60;;;13.40;57.00;;;;;;5067341;28;20680;-37
2022/08/09 10:12:31;;;;;;;4.47;3.65;;;13.40;56.90;;;;;;5069794;28;20279;-37
2022/08/09 10:15:14;;;;;;;5.30;3.70;;;13.40;56.80;;;;;;5071365;28;20263;-37
2022/08/09 10:17:49;;;;;;;5.10;3.75;;;13.40;56.80;;;;;;5053591;28;20284;-41
2022/08/09 10:20:29;;;;;;;5.25;3.63;;;13.40;56.80;;;;;;5066954;28;20185;-45
2022/08/09 10:23:01;;;;;;;4.57;3.40;;;13.40;56.70;;;;;;5091777;28;20194;-37
2022/08/09 10:25:33;;;;;;;4.45;3.70;;;13.30;56.60;;;;;;5091076;28;20243;-40
2022/08/09 10:28:04;;;;;;;4.65;3.33;;;13.30;56.50;;;;;;5068489;28;20788;-49
2022/08/09 10:30:35;;;;;;;5.00;3.15;;;13.30;56.50;;;;;;5061048;28;20191;-37
2022/08/09 10:33:06;;;;;;;5.75;3.60;;;13.30;56.50;;;;;;5070552;28;20222;-37
2022/08/09 10:35:39;;;;;;;4.22;3.35;;;13.30;56.50;;;;;;5070943;28;20211;-53
2022/08/09 10:38:10;;;;;;;4.38;3.70;;;13.30;56.50;;;;;;5070637;28;20206;-41
2022/08/09 10:40:43;;;;;;;4.70;3.70;;;13.30;56.50;;;;;;5071179;28;20182;-37
2022/08/09 10:43:14;;;;;;;3.85;3.22;;;13.30;56.50;;;;;;5071236;28;20198;-37
2022/08/09 10:45:46;;;;;;;3.92;3.08;;;13.30;56.40;;;;;;5070919;28;20597;-42
2022/08/09 10:48:24;;;;;;;4.05;3.35;;;13.20;56.40;;;;;;5070916;28;20198;-43
2022/08/09 10:51:08;;;;;;;4.70;3.10;;;13.20;56.40;;;;;;5070416;28;20194;-48
2022/08/09 10:53:51;;;;;;;4.40;3.35;;;13.20;56.40;;;;;;5070713;28;20230;-46
2022/08/09 10:56:24;;;;;;;4.15;3.22;;;13.20;56.40;;;;;;5070284;28;20682;-36
2022/08/09 10:58:55;;;;;;;5.20;3.65;;;13.20;56.30;;;;;;5069751;28;20206;-41
2022/08/09 11:01:42;;;;;;;3.72;3.28;;;13.20;56.30;;;;;;5070188;28;20199;-38
2022/08/09 11:04:21;;;;;;;4.38;3.25;;;13.20;56.30;;;;;;5070880;28;20670;-37
2022/08/09 11:07:30;;;;;;;3.90;3.20;;;13.20;56.30;;;;;;5069086;28;20214;-41
2022/08/09 11:10:00;;;;;;;4.47;3.25;;;13.20;56.30;;;;;;5069975;28;20207;-40
2022/08/09 11:12:31;;;;;;;4.25;3.65;;;13.20;56.30;;;;;;5070396;28;20229;-50
2022/08/09 11:15:22;;;;;;;4.43;3.38;;;13.20;56.40;;;;;;5070041;28;20195;-37
2022/08/09 11:17:55;;;;;;;4.38;3.38;;;13.20;56.30;;;;;;5070479;28;20568;-50
2022/08/09 11:20:41;;;;;;;4.85;3.15;;;13.10;56.30;;;;;;5070422;28;20242;-40
2022/08/09 11:23:14;;;;;;;3.63;3.00;;;13.10;56.30;;;;;;5069557;28;20194;-38
2022/08/09 11:25:49;;;;;;;3.65;2.88;;;13.10;56.30;;;;;;5070890;28;20222;-49
2022/08/09 11:28:37;;;;;;;3.53;3.05;;;13.10;56.30;;;;;;5067653;28;20226;-37
2022/08/09 11:31:48;;;;;;;3.97;3.45;;;13.10;56.30;;;;;;5071055;28;20201;-56
2022/08/09 11:34:42;;;;;;;4.97;3.35;;;13.10;56.20;;;;;;5070320;28;20205;-40
2022/08/09 11:37:25;;;;;;;4.03;2.75;;;13.10;56.20;;;;;;5069376;28;20709;-37
2022/08/09 11:40:08;;;;;;;4.63;3.50;;;13.10;56.20;;;;;;5069181;28;20187;-37
2022/08/09 11:42:45;;;;;;;4.47;3.25;;;13.10;56.20;;;;;;5068958;28;20191;-39
2022/08/09 11:45:24;;;;;;;5.00;3.33;;;13.10;56.20;;;;;;5069657;28;20218;-46
2022/08/09 11:47:56;;;;;;;5.18;3.28;;;13.10;56.20;;;;;;5068967;28;20273;-42
2022/08/09 11:50:28;;;;;;;4.15;3.20;;;13.10;56.80;;;;;;5069432;28;20199;-37
2022/08/09 11:53:23;;;;;;;4.78;3.35;;;13.10;56.30;;;;;;5073600;28;20222;-40
2022/08/09 11:55:56;;;;;;;4.35;3.38;;;13.00;56.30;;;;;;5073236;28;20246;-37
2022/08/09 11:58:50;;;;;;;4.38;3.50;;;13.10;56.30;;;;;;5072535;28;20681;-37
2022/08/09 12:01:32;;;;;;;5.32;3.42;;;13.00;56.30;;;;;;5053194;28;20206;-39
2022/08/09 12:04:05;;;;;;;5.55;3.75;;;13.10;56.30;;;;;;5053505;28;20207;-37
2022/08/09 12:06:37;;;;;;;5.20;3.78;;;13.00;56.20;;;;;;5053182;28;20222;-37
2022/08/09 12:09:10;;;;;;;4.72;3.42;;;13.10;56.20;;;;;;5053083;28;20199;-36
2022/08/09 12:11:42;;;;;;;5.10;3.78;;;13.00;56.20;;;;;;5052898;28;20643;-38
2022/08/09 12:14:13;;;;;;;5.38;3.72;;;13.10;56.20;;;;;;5057005;28;20230;-40
2022/08/09 12:16:45;;;;;;;7.47;4.32;;;13.00;56.10;;;;;;5072013;28;20206;-37
2022/08/09 12:19:15;;;;;;;5.50;3.80;;;13.00;56.10;;;;;;5071841;28;20190;-42
2022/08/09 12:21:50;;;;;;;5.80;3.47;;;13.00;56.20;;;;;;5072818;28;20198;-38
2022/08/09 12:24:24;;;;;;;5.85;3.55;;;13.00;56.20;;;;;;5072726;28;20221;-36
2022/08/09 12:26:58;;;;;;;4.72;3.70;;;13.00;56.20;;;;;;5072396;28;20230;-37
2022/08/09 12:29:31;;;;;;;5.45;3.67;;;13.00;56.20;;;;;;5072518;28;20214;-37
2022/08/09 12:32:06;;;;;;;6.20;4.18;;;13.00;56.20;;;;;;5072627;28;20199;-37
2022/08/09 12:34:38;;;;;;;3.78;2.95;;;13.00;56.20;;;;;;5072494;28;20197;-38
2022/08/09 12:37:10;;;;;;;5.00;3.70;;;13.00;56.20;;;;;;5072225;28;20575;-36
2022/08/09 12:39:41;;;;;;;5.60;3.45;;;13.00;56.10;;;;;;5072486;28;20697;-37
2022/08/09 12:42:15;;;;;;;5.47;3.50;;;12.90;56.10;;;;;;5072267;28;20195;-41
2022/08/09 12:44:47;;;;;;;5.90;3.63;;;13.00;56.10;;;;;;5072535;28;20195;-37
2022/08/09 12:47:19;;;;;;;6.43;3.70;;;13.00;56.10;;;;;;5072101;28;20218;-37
2022/08/09 12:52:40;;;;;;;3.97;3.05;;;13.00;56.10;;;;;;5071696;28;20230;-35
2022/08/09 12:55:12;;;;;;;5.47;3.92;;;12.90;56.00;;;;;;5072386;28;20217;-37
2022/08/09 12:57:46;;;;;;;4.57;3.65;;;12.90;56.00;;;;;;5072015;28;20195;-37
2022/08/09 13:00:21;;;;;;;5.70;3.40;;;12.90;56.00;;;;;;5072082;28;20198;-37
2022/08/09 13:02:55;;;;;;;5.57;3.38;;;12.90;56.00;;;;;;5071002;28;20202;-37
2022/08/09 13:05:27;;;;;;;6.05;4.10;;;12.90;56.10;;;;;;5071437;28;20246;-38
2022/08/09 13:08:15;;;;;;;4.95;3.33;;;12.90;56.00;;;;;;5071968;28;20203;-37
2022/08/09 13:10:50;;;;;;;4.32;3.20;;;12.90;56.10;;;;;;5071959;28;20203;-41
2022/08/09 13:13:32;;;;;;;4.43;3.28;;;12.90;56.10;;;;;;5071325;28;20222;-42
2022/08/09 13:16:05;;;;;;;4.28;2.88;;;12.80;56.00;;;;;;5071378;28;20716;-37
2022/08/09 13:18:45;;;;;;;4.20;3.53;;;12.90;56.00;;;;;;5071717;28;20230;-37
2022/08/09 13:21:21;;;;;;;3.90;3.05;;;12.90;56.00;;;;;;5071572;28;20669;-37